createdAt,value
2022-10-22T00:01:28.633Z,8.60
2022-10-22T00:04:34.544Z,10.20
2022-10-22T00:07:38.571Z,9.68
2022-10-22T00:16:52.864Z,9.05
2022-10-22T00:19:55.468Z,10.30
2022-10-22T00:22:58.307Z,9.98
2022-10-22T00:26:01.059Z,9.65
2022-10-22T00:29:04.782Z,9.32
2022-10-22T00:32:07.635Z,9.23
2022-10-22T00:35:10.369Z,9.10
2022-10-22T00:38:13.034Z,9.48
2022-10-22T00:41:15.778Z,9.43
2022-10-22T00:45:02.892Z,9.63
2022-10-22T00:48:10.455Z,9.18
2022-10-22T00:51:13.988Z,9.05
2022-10-22T00:54:16.755Z,8.70
2022-10-22T00:57:22.812Z,8.73
2022-10-22T01:00:26.251Z,9.80
2022-10-22T01:06:34.237Z,9.27
2022-10-22T01:09:46.615Z,9.27
2022-10-22T01:13:05.672Z,10.15
2022-10-22T01:16:14.639Z,9.43
2022-10-22T01:19:26.558Z,8.63
2022-10-22T01:22:38.674Z,9.30
2022-10-22T01:26:05.552Z,9.65
2022-10-22T01:29:15.898Z,9.50
2022-10-22T01:32:24.220Z,9.70
2022-10-22T01:35:35.096Z,8.93
2022-10-22T01:38:39.712Z,9.15
2022-10-22T01:41:45.455Z,9.27
2022-10-22T01:44:50.170Z,8.63
2022-10-22T01:48:07.849Z,8.38
2022-10-22T01:51:13.620Z,8.68
2022-10-22T01:54:36.316Z,8.82
2022-10-22T01:57:48.921Z,8.95
2022-10-22T02:01:00.682Z,9.68
2022-10-22T02:04:22.968Z,9.25
2022-10-22T02:07:30.621Z,9.40
2022-10-22T02:10:34.040Z,9.40
2022-10-22T02:13:44.763Z,9.32
2022-10-22T02:16:49.533Z,8.77
2022-10-22T02:20:00.784Z,9.63
2022-10-22T02:23:05.033Z,8.63
2022-10-22T02:26:15.293Z,9.60
2022-10-22T02:29:27.888Z,9.93
2022-10-22T02:32:56.128Z,9.23
2022-10-22T02:36:01.108Z,10.45
2022-10-22T02:39:05.683Z,10.38
2022-10-22T02:42:09.678Z,10.00
2022-10-22T02:45:12.339Z,10.68
2022-10-22T02:48:15.142Z,10.05
2022-10-22T02:51:17.941Z,9.75
2022-10-22T02:54:21.169Z,9.98
2022-10-22T02:57:23.824Z,10.13
2022-10-22T03:00:26.619Z,12.15
2022-10-22T03:03:29.375Z,12.30
2022-10-22T03:06:32.202Z,10.88
2022-10-22T03:09:34.816Z,12.75
2022-10-22T03:12:37.508Z,11.02
2022-10-22T03:15:40.182Z,11.60
2022-10-22T03:18:42.905Z,10.95
2022-10-22T03:21:52.925Z,11.05
2022-10-22T03:25:00.846Z,10.75
2022-10-22T03:28:07.037Z,11.07
2022-10-22T03:31:09.821Z,10.80
2022-10-22T03:34:13.488Z,11.23
2022-10-22T03:37:17.038Z,11.38
2022-10-22T03:43:22.719Z,11.43
2022-10-22T03:46:26.389Z,11.00
2022-10-22T03:49:29.110Z,11.27
2022-10-22T03:52:37.240Z,11.25
2022-10-22T03:55:41.679Z,10.80
2022-10-22T03:58:44.300Z,11.18
2022-10-22T04:01:47.027Z,10.57
2022-10-22T04:04:49.900Z,11.32
2022-10-22T04:07:52.407Z,10.73
2022-10-22T04:10:55.400Z,10.85
2022-10-22T04:13:57.840Z,11.37
2022-10-22T04:17:01.085Z,11.32
2022-10-22T04:20:04.864Z,11.70
2022-10-22T04:23:07.794Z,11.85
2022-10-22T04:26:10.210Z,11.17
2022-10-22T04:29:16.358Z,12.30
2022-10-22T04:32:19.053Z,11.85
2022-10-22T04:35:22.014Z,12.02
2022-10-22T04:38:24.441Z,12.40
2022-10-22T04:41:30.360Z,12.32
2022-10-22T04:44:32.962Z,11.38
2022-10-22T04:47:35.854Z,11.85
2022-10-22T04:50:38.411Z,11.63
2022-10-22T04:53:46.264Z,12.32
2022-10-22T04:56:48.715Z,11.80
2022-10-22T04:59:52.507Z,11.07
2022-10-22T05:06:01.677Z,11.73
2022-10-22T05:09:10.825Z,12.45
2022-10-22T05:12:13.839Z,11.60
2022-10-22T05:15:16.398Z,11.38
2022-10-22T05:18:21.870Z,11.60
2022-10-22T05:21:25.207Z,11.52
2022-10-22T05:24:30.085Z,11.48
2022-10-22T05:27:32.516Z,11.77
2022-10-22T05:30:35.440Z,11.45
2022-10-22T05:33:38.519Z,17.90
2022-10-22T05:36:41.980Z,12.68
2022-10-22T05:39:44.407Z,16.00
2022-10-22T05:42:47.310Z,14.00
2022-10-22T05:45:49.721Z,12.13
2022-10-22T05:48:54.525Z,12.00
2022-10-22T05:51:57.040Z,12.10
2022-10-22T05:54:59.921Z,12.07
2022-10-22T05:58:05.208Z,11.38
2022-10-22T06:01:18.988Z,12.18
2022-10-22T06:04:21.759Z,11.95
2022-10-22T06:07:24.379Z,11.15
2022-10-22T06:10:27.109Z,11.88
2022-10-22T06:13:29.748Z,11.75
2022-10-22T06:16:32.653Z,11.88
2022-10-22T06:19:35.367Z,10.73
2022-10-22T06:22:38.533Z,19.52
2022-10-22T06:25:42.089Z,41.97
2022-10-22T06:28:44.784Z,15.60
2022-10-22T06:31:48.259Z,11.63
2022-10-22T06:34:51.042Z,11.23
2022-10-22T06:37:53.813Z,11.57
2022-10-22T06:40:56.553Z,10.68
2022-10-22T06:44:00.043Z,11.32
2022-10-22T06:47:02.994Z,10.68
2022-10-22T06:50:06.072Z,10.68
2022-10-22T06:53:08.856Z,11.60
2022-10-22T06:56:14.284Z,10.88
2022-10-22T06:59:17.019Z,11.63
2022-10-22T07:02:19.747Z,10.85
2022-10-22T07:05:22.499Z,11.68
2022-10-22T07:08:25.154Z,10.88
2022-10-22T07:11:30.988Z,10.95
2022-10-22T07:14:33.755Z,10.57
2022-10-22T07:17:36.807Z,11.70
2022-10-22T07:20:42.706Z,13.23
2022-10-22T07:23:45.392Z,12.75
2022-10-22T07:26:48.048Z,13.48
2022-10-22T07:29:50.720Z,13.18
2022-10-22T07:32:53.345Z,12.57
2022-10-22T07:36:00.884Z,12.00
2022-10-22T07:39:03.989Z,26.40
2022-10-22T07:45:09.666Z,12.48
2022-10-22T07:48:12.763Z,11.40
2022-10-22T07:51:16.394Z,11.68
2022-10-22T07:54:19.364Z,11.88
2022-10-22T08:00:25.396Z,11.50
2022-10-22T08:03:29.501Z,12.18
2022-10-22T08:06:31.948Z,12.20
2022-10-22T08:09:35.108Z,10.77
2022-10-22T08:12:38.611Z,10.82
2022-10-22T08:18:51.491Z,11.88
2022-10-22T08:21:54.505Z,12.10
2022-10-22T08:24:56.955Z,11.73
2022-10-22T08:27:59.860Z,12.15
2022-10-22T08:31:05.617Z,11.90
2022-10-22T08:34:08.488Z,14.70
2022-10-22T08:37:14.302Z,12.30
2022-10-22T08:40:26.207Z,12.40
2022-10-22T08:44:06.215Z,12.48
2022-10-22T08:47:22.733Z,13.45
2022-10-22T08:50:49.838Z,12.40
2022-10-22T08:54:10.961Z,14.20
2022-10-22T08:57:19.908Z,13.85
2022-10-22T09:00:23.035Z,13.98
2022-10-22T09:03:40.122Z,13.68
2022-10-22T09:06:49.533Z,13.82
2022-10-22T09:09:57.840Z,15.20
2022-10-22T09:13:00.849Z,15.27
2022-10-22T09:16:19.915Z,14.68
2022-10-22T09:19:38.095Z,15.00
2022-10-22T09:22:58.668Z,15.60
2022-10-22T09:26:02.059Z,15.13
2022-10-22T09:29:05.347Z,15.00
2022-10-22T09:32:08.461Z,20.90
2022-10-22T09:35:13.402Z,17.50
2022-10-22T09:38:20.756Z,15.82
2022-10-22T09:41:29.928Z,14.52
2022-10-22T09:44:37.529Z,14.32
2022-10-22T09:48:00.525Z,16.60
2022-10-22T09:51:25.889Z,23.98
2022-10-22T09:54:34.443Z,16.05
2022-10-22T09:57:38.810Z,16.90
2022-10-22T10:00:47.912Z,15.73
2022-10-22T10:03:50.878Z,15.50
2022-10-22T10:06:56.519Z,15.52
2022-10-22T10:09:59.752Z,15.00
2022-10-22T10:13:17.079Z,15.60
2022-10-22T10:16:29.324Z,14.30
2022-10-22T10:19:59.957Z,14.30
2022-10-22T10:23:24.496Z,15.65
2022-10-22T10:26:34.568Z,15.27
2022-10-22T10:29:54.633Z,15.85
2022-10-22T10:33:11.103Z,15.50
2022-10-22T10:36:43.272Z,17.58
2022-10-22T10:40:14.923Z,16.27
2022-10-22T10:43:37.268Z,16.02
2022-10-22T10:46:48.528Z,16.12
2022-10-22T10:49:55.768Z,16.08
2022-10-22T10:53:27.499Z,15.43
2022-10-22T10:56:41.256Z,17.05
2022-10-22T11:03:16.613Z,16.75
2022-10-22T11:06:25.551Z,17.40
2022-10-22T11:09:34.485Z,16.90
2022-10-22T11:12:45.131Z,16.87
2022-10-22T11:15:57.971Z,18.10
2022-10-22T11:19:07.036Z,18.13
2022-10-22T11:22:27.045Z,19.08
2022-10-22T11:25:34.889Z,17.60
2022-10-22T11:28:43.897Z,17.77
2022-10-22T11:31:47.430Z,17.37
2022-10-22T11:34:54.687Z,16.50
2022-10-22T11:37:58.102Z,18.05
2022-10-22T11:41:05.511Z,18.17
2022-10-22T11:44:07.846Z,17.52
2022-10-22T11:47:25.394Z,17.90
2022-10-22T11:50:48.231Z,20.73
2022-10-22T11:53:57.139Z,24.10
2022-10-22T11:57:15.533Z,19.77
2022-10-22T12:00:48.246Z,19.80
2022-10-22T12:03:58.287Z,18.58
2022-10-22T12:07:02.009Z,18.52
2022-10-22T12:10:29.420Z,19.25
2022-10-22T12:13:52.601Z,18.87
2022-10-22T12:17:14.921Z,18.62
2022-10-22T12:20:17.660Z,19.50
2022-10-22T12:23:31.500Z,19.67
2022-10-22T12:26:34.966Z,19.40
2022-10-22T12:29:37.938Z,18.67
2022-10-22T12:35:46.523Z,18.23
2022-10-22T12:38:49.267Z,17.83
2022-10-22T12:41:54.376Z,21.08
2022-10-22T12:44:57.180Z,20.92
2022-10-22T12:48:16.146Z,19.52
2022-10-22T12:51:20.578Z,19.45
2022-10-22T12:54:30.630Z,19.27
2022-10-22T12:57:33.311Z,20.35
2022-10-22T13:00:36.336Z,20.83
2022-10-22T13:06:54.513Z,19.58
2022-10-22T13:09:59.853Z,19.98
2022-10-22T13:13:04.067Z,19.20
2022-10-22T13:19:54.009Z,19.17
2022-10-22T13:23:00.550Z,20.55
2022-10-22T13:26:18.092Z,20.58
2022-10-22T13:29:23.367Z,20.88
2022-10-22T13:32:34.242Z,20.55
2022-10-22T13:35:38.258Z,19.40
2022-10-22T13:38:41.774Z,18.23
2022-10-22T13:41:45.036Z,19.15
2022-10-22T13:44:47.901Z,19.60
2022-10-22T13:47:54.809Z,18.67
2022-10-22T13:50:57.599Z,18.58
2022-10-22T13:54:00.998Z,18.55
2022-10-22T13:57:09.000Z,20.62
2022-10-22T14:00:18.166Z,22.02
2022-10-22T14:03:23.925Z,19.33
2022-10-22T14:06:28.869Z,18.27
2022-10-22T14:09:31.664Z,19.25
2022-10-22T14:12:34.291Z,17.95
2022-10-22T14:15:38.540Z,18.20
2022-10-22T14:18:41.276Z,19.15
2022-10-22T14:21:44.021Z,19.20
2022-10-22T14:24:46.868Z,19.20
2022-10-22T14:27:50.266Z,18.80
2022-10-22T14:30:53.891Z,18.65
2022-10-22T14:33:56.632Z,19.60
2022-10-22T14:36:59.238Z,18.98
2022-10-22T14:40:02.805Z,18.62
2022-10-22T14:43:05.815Z,16.83
2022-10-22T14:49:13.859Z,18.52
2022-10-22T14:52:16.811Z,17.90
2022-10-22T14:55:19.964Z,18.65
2022-10-22T14:58:22.640Z,17.50
2022-10-22T15:01:25.233Z,18.83
2022-10-22T15:04:28.222Z,17.58
2022-10-22T15:07:30.994Z,18.65
2022-10-22T15:10:33.717Z,18.12
2022-10-22T15:13:36.369Z,18.05
2022-10-22T15:16:39.251Z,18.17
2022-10-22T15:19:43.573Z,16.85
2022-10-22T15:22:46.319Z,16.98
2022-10-22T15:25:49.061Z,17.50
2022-10-22T15:31:57.880Z,16.87
2022-10-22T15:35:01.567Z,14.75
2022-10-22T15:38:06.616Z,17.67
2022-10-22T15:41:12.420Z,16.00
2022-10-22T15:44:20.738Z,15.57
2022-10-22T15:47:25.296Z,15.20
2022-10-22T15:50:28.028Z,14.10
2022-10-22T15:53:30.730Z,14.63
2022-10-22T15:56:33.597Z,15.27
2022-10-22T15:59:36.576Z,15.43
2022-10-22T16:02:39.496Z,16.60
2022-10-22T16:05:50.420Z,16.62
2022-10-22T16:08:54.654Z,17.37
2022-10-22T16:11:57.555Z,26.58
2022-10-22T16:15:01.730Z,21.70
2022-10-22T16:18:04.684Z,19.25
2022-10-22T16:21:12.929Z,19.27
2022-10-22T16:24:15.800Z,18.83
2022-10-22T16:27:18.473Z,17.05
2022-10-22T16:33:24.233Z,18.80
2022-10-22T16:36:27.055Z,18.37
2022-10-22T16:39:29.774Z,21.08
2022-10-22T16:42:32.743Z,20.83
2022-10-22T16:45:35.674Z,20.55
2022-10-22T16:48:42.070Z,21.98
2022-10-22T16:51:45.283Z,20.73
2022-10-22T16:57:53.900Z,21.80
2022-10-22T17:00:56.930Z,21.08
2022-10-22T17:04:00.708Z,21.12
2022-10-22T17:07:03.582Z,20.67
2022-10-22T17:10:09.108Z,21.10
2022-10-22T17:13:15.361Z,20.02
2022-10-22T17:16:20.383Z,21.65
2022-10-22T17:19:24.016Z,20.37
2022-10-22T17:22:27.225Z,21.58
2022-10-22T17:25:42.069Z,21.35
2022-10-22T17:28:45.201Z,22.27
2022-10-22T17:31:48.687Z,22.67
2022-10-22T17:37:54.420Z,27.37
2022-10-22T17:40:59.150Z,26.35
2022-10-22T17:44:05.638Z,22.90
2022-10-22T17:47:09.150Z,21.87
2022-10-22T17:50:12.060Z,22.60
2022-10-22T17:53:15.088Z,20.83
2022-10-22T17:56:21.705Z,21.87
2022-10-22T17:59:24.927Z,21.17
2022-10-22T18:02:30.402Z,21.65
2022-10-22T18:05:33.812Z,20.73
2022-10-22T18:08:36.965Z,20.52
2022-10-22T18:11:41.000Z,20.75
2022-10-22T18:20:53.614Z,21.45
2022-10-22T18:23:59.898Z,21.12
2022-10-22T18:27:04.039Z,21.25
2022-10-22T18:30:07.665Z,23.83
2022-10-22T18:33:12.525Z,22.00
2022-10-22T18:36:19.214Z,21.83
2022-10-22T18:39:21.801Z,21.27
2022-10-22T18:42:26.456Z,21.05
2022-10-22T18:45:32.824Z,20.95
2022-10-22T18:48:36.936Z,22.87
2022-10-22T18:51:39.905Z,21.50
2022-10-22T18:54:43.248Z,20.12
2022-10-22T18:57:45.951Z,21.60
2022-10-22T19:00:50.581Z,20.90
2022-10-22T19:03:53.284Z,22.08
2022-10-22T19:06:58.809Z,22.30
2022-10-22T19:10:01.371Z,22.23
2022-10-22T19:13:04.416Z,20.42
2022-10-22T19:16:09.486Z,20.55
2022-10-22T19:19:16.358Z,21.98
2022-10-22T19:22:18.938Z,21.90
2022-10-22T19:25:22.143Z,21.50
2022-10-22T19:28:24.577Z,22.13
2022-10-22T19:31:29.968Z,25.23
2022-10-22T19:34:32.599Z,22.92
2022-10-22T19:37:37.097Z,25.67
2022-10-22T19:40:42.293Z,25.37
2022-10-22T19:43:48.521Z,25.20
2022-10-22T19:46:51.017Z,23.33
2022-10-22T19:52:56.711Z,23.38
2022-10-22T19:59:04.331Z,23.05
2022-10-22T20:02:11.993Z,23.10
2022-10-22T20:05:14.784Z,23.35
2022-10-22T20:08:17.549Z,23.90
2022-10-22T20:11:23.494Z,23.02
2022-10-22T20:14:26.482Z,23.08
2022-10-22T20:17:29.283Z,22.52
2022-10-22T20:20:31.977Z,25.70
2022-10-22T20:23:35.374Z,25.52
2022-10-22T20:26:38.647Z,24.75
2022-10-22T20:29:42.757Z,23.33
2022-10-22T20:32:45.606Z,24.17
2022-10-22T20:36:01.753Z,25.60
2022-10-22T20:39:08.215Z,23.70
2022-10-22T20:42:11.103Z,25.58
2022-10-22T20:45:13.789Z,25.85
2022-10-22T20:48:16.593Z,26.52
2022-10-22T20:51:19.465Z,25.35
2022-10-22T20:54:22.591Z,26.62
2022-10-22T20:57:25.504Z,26.02
2022-10-22T21:00:28.381Z,26.77
2022-10-22T21:06:41.424Z,25.45
2022-10-22T21:09:44.240Z,25.98
2022-10-22T21:12:47.130Z,32.17
2022-10-22T21:15:49.878Z,28.75
2022-10-22T21:18:52.620Z,33.50
2022-10-22T21:21:55.558Z,27.80
2022-10-22T21:24:58.600Z,27.23
2022-10-22T21:28:01.592Z,26.17
2022-10-22T21:31:06.835Z,28.20
2022-10-22T21:34:09.836Z,26.62
2022-10-22T21:37:12.719Z,26.83
2022-10-22T21:40:15.560Z,28.55
2022-10-22T21:43:18.763Z,27.67
2022-10-22T21:46:27.017Z,29.33
2022-10-22T21:49:29.762Z,26.33
2022-10-22T21:52:32.425Z,27.60
2022-10-22T21:55:39.649Z,25.25
2022-10-22T21:58:42.494Z,24.55
2022-10-22T22:01:45.339Z,25.77
2022-10-22T22:04:50.486Z,25.62
2022-10-22T22:07:52.971Z,24.83
2022-10-22T22:11:23.535Z,24.35
2022-10-22T22:14:26.155Z,24.25
2022-10-22T22:17:29.064Z,23.83
2022-10-22T22:20:31.560Z,24.07
2022-10-22T22:23:37.719Z,24.77
2022-10-22T22:26:40.989Z,23.42
2022-10-22T22:29:44.169Z,24.45
2022-10-22T22:32:46.732Z,25.65
2022-10-22T22:35:49.971Z,23.95
2022-10-22T22:38:56.815Z,25.12
2022-10-22T22:41:59.970Z,25.35
2022-10-22T22:45:02.634Z,24.90
2022-10-22T22:48:06.012Z,24.52
2022-10-22T22:51:08.648Z,23.08
2022-10-22T22:54:11.843Z,22.65
2022-10-22T22:57:15.216Z,22.00
2022-10-22T23:00:18.344Z,22.48
2022-10-22T23:03:21.530Z,21.83
2022-10-22T23:06:27.056Z,21.87
2022-10-22T23:09:29.463Z,21.95
2022-10-22T23:12:32.487Z,22.65
2022-10-22T23:15:38.831Z,23.67
2022-10-22T23:18:42.513Z,24.42
2022-10-22T23:21:48.247Z,23.67
2022-10-22T23:24:51.143Z,23.38
2022-10-22T23:27:53.596Z,26.03
2022-10-22T23:30:56.557Z,24.33
2022-10-22T23:33:59.617Z,26.50
2022-10-22T23:37:02.718Z,23.73
2022-10-22T23:40:05.868Z,23.95
2022-10-22T23:43:08.878Z,23.38
2022-10-22T23:46:12.958Z,23.97
2022-10-22T23:49:16.856Z,23.70
2022-10-22T23:52:19.669Z,24.77
2022-10-22T23:55:22.682Z,25.17
2022-10-22T23:58:25.183Z,27.07
